| time (UTC) | temp F | wind direction | speed MPH | gust MPH | rain 1hr in | rain 24hr in | rain mn in | humidity % | barometer mb |
| 20260509105004 | 53 | 247 | 1.0 | 3.0 | 0.25 | 1.00 | 1.00 | 97 | 1021.3 |
| 20260509104503 | 53 | 243 | 2.0 | 6.0 | 0.16 | 0.91 | 0.91 | 97 | 1021.8 |
| 20260509104003 | 53 | 235 | 2.0 | 5.0 | 0.14 | 0.88 | 0.88 | 97 | 1021.7 |
| 20260509103504 | 53 | 235 | 2.0 | 5.0 | 0.13 | 0.86 | 0.86 | 97 | 1021.6 |
| 20260509103004 | 53 | 228 | 2.0 | 5.0 | 0.12 | 0.85 | 0.85 | 97 | 1021.1 |
| 20260509102504 | 53 | 230 | 1.0 | 2.0 | 0.11 | 0.84 | 0.84 | 97 | 1020.9 |
| 20260509102003 | 53 | 238 | 1.0 | 2.0 | 0.10 | 0.82 | 0.82 | 97 | 1020.7 |
| 20260509101504 | 53 | 228 | 0.0 | 1.0 | 0.09 | 0.81 | 0.81 | 97 | 1021.0 |
| 20260509100503 | 53 | 43 | 1.0 | 3.0 | 0.15 | 0.78 | 0.78 | 97 | 1020.3 |
| 20260509100005 | 53 | 36 | 3.0 | 5.0 | 0.14 | 0.77 | 0.77 | 97 | 1020.3 |
| 20260509095503 | 53 | 55 | 1.0 | 2.0 | 0.18 | 0.76 | 0.76 | 98 | 1020.1 |
| 20260509095004 | 53 | 343 | 0.0 | 3.0 | 0.21 | 0.75 | 0.75 | 98 | 1020.0 |
| 20260509094504 | 53 | 49 | 1.0 | 3.0 | 0.22 | 0.75 | 0.75 | 98 | 1019.7 |
| 20260509093504 | 53 | 55 | 1.0 | 6.0 | 0.26 | 0.73 | 0.73 | 98 | 1019.7 |
| 20260509092005 | 54 | 49 | 2.0 | 3.0 | 0.31 | 0.72 | 0.72 | 98 | 1019.8 |
| 20260509091504 | 54 | 42 | 3.0 | 7.0 | 0.36 | 0.72 | 0.72 | 98 | 1019.5 |
| 20260509091004 | 54 | 50 | 4.0 | 8.0 | 0.32 | 0.67 | 0.67 | 98 | 1019.1 |
| 20260509090504 | 54 | 42 | 3.0 | 6.0 | 0.31 | 0.63 | 0.63 | 98 | 1019.7 |
| 20260509090004 | 54 | 40 | 2.0 | 9.0 | 0.36 | 0.63 | 0.63 | 97 | 1019.6 |
| 20260509085504 | 54 | 31 | 5.0 | 10.0 | 0.37 | 0.58 | 0.58 | 97 | 1018.6 |
| 20260509085004 | 54 | 45 | 2.0 | 7.0 | 0.35 | 0.54 | 0.54 | 97 | 1019.3 |
| 20260509084504 | 54 | 45 | 5.0 | 10.0 | 0.36 | 0.53 | 0.53 | 97 | 1019.0 |
| 20260509084004 | 54 | 51 | 6.0 | 9.0 | 0.35 | 0.50 | 0.50 | 97 | 1018.8 |
| 20260509083504 | 54 | 41 | 6.0 | 10.0 | 0.34 | 0.47 | 0.47 | 97 | 1018.8 |
| 20260509083005 | 54 | 42 | 6.0 | 10.0 | 0.33 | 0.45 | 0.45 | 97 | 1019.5 |
| 20260509082504 | 54 | 43 | 3.0 | 7.0 | 0.33 | 0.44 | 0.44 | 97 | 1019.6 |
| 20260509082004 | 55 | 40 | 3.0 | 6.0 | 0.31 | 0.41 | 0.41 | 97 | 1019.4 |
| 20260509081503 | 55 | 297 | 1.0 | 3.0 | 0.27 | 0.36 | 0.36 | 97 | 1019.5 |
| 20260509081005 | 55 | 216 | 2.0 | 3.0 | 0.28 | 0.35 | 0.35 | 97 | 1019.9 |
| 20260509080504 | 55 | 121 | 1.0 | 7.0 | 0.27 | 0.32 | 0.32 | 97 | 1019.4 |
| 20260509080003 | 55 | 41 | 2.0 | 6.0 | 0.23 | 0.27 | 0.27 | 97 | 1018.9 |
| 20260509075503 | 54 | 72 | 3.0 | 7.0 | 0.19 | 0.21 | 0.21 | 97 | 1019.2 |
| 20260509075003 | 54 | 52 | 2.0 | 5.0 | 0.18 | 0.19 | 0.19 | 97 | 1018.8 |
| 20260509074504 | 55 | 88 | 1.0 | 5.0 | 0.16 | 0.17 | 0.17 | 97 | 1019.0 |
| 20260509074003 | 55 | 42 | 4.0 | 6.0 | 0.14 | 0.15 | 0.15 | 97 | 1019.6 |
| 20260509073503 | 55 | 39 | 2.0 | 6.0 | 0.12 | 0.13 | 0.13 | 97 | 1020.0 |
| 20260509073003 | 55 | 63 | 1.0 | 3.0 | 0.12 | 0.12 | 0.12 | 97 | 1020.1 |
| 20260509072503 | 55 | 80 | 1.0 | 3.0 | 0.11 | 0.11 | 0.11 | 96 | 1019.9 |
| 20260509072004 | 55 | 59 | 1.0 | 5.0 | 0.10 | 0.10 | 0.10 | 96 | 1019.5 |
| 20260509071004 | 55 | 38 | 4.0 | 6.0 | 0.07 | 0.07 | 0.07 | 96 | 1019.3 |
| 20260509070503 | 55 | 35 | 2.0 | 5.0 | 0.05 | 0.05 | 0.05 | 96 | 1019.9 |
| 20260509065504 | 55 | 228 | 1.0 | 3.0 | 0.02 | 0.02 | 0.02 | 96 | 1020.3 |
| 20260509064504 | 55 | 138 | 1.0 | 3.0 | 0.01 | 0.01 | 0.01 | 95 | 1020.2 |
| 20260509064004 | 55 | 68 | 0.0 | 1.0 | 0.01 | 0.01 | 0.01 | 95 | 1019.5 |
| 20260509063504 | 55 | 104 | 1.0 | 2.0 | 0.01 | 0.01 | 0.01 | 95 | 1019.0 |
| 20260509063004 | 55 | 57 | 1.0 | 3.0 | 0.00 | 0.00 | 0.00 | 95 | 1018.9 |
| 20260509062503 | 55 | 53 | 2.0 | 5.0 | 0.00 | 0.00 | 0.00 | 95 | 1019.2 |
| 20260509062004 | 55 | 49 | 2.0 | 3.0 | 0.00 | 0.00 | 0.00 | 95 | 1019.6 |
| 20260509061005 | 55 | 12 | 1.0 | 2.0 | 0.00 | 0.00 | 0.00 | 95 | 1019.9 |
| 20260509060503 | 55 | 238 | 1.0 | 3.0 | 0.00 | 0.00 | 0.00 | 95 | 1020.4 |
| 20260509060004 | 55 | 231 | 2.0 | 3.0 | 0.00 | 0.00 | 0.00 | 95 | 1019.6 |
| 20260509055003 | 55 | 45 | 2.0 | 3.0 | 0.00 | 0.00 | 0.00 | 94 | 1018.9 |
| 20260509054503 | 55 | 218 | 1.0 | 1.0 | 0.00 | 0.00 | 0.00 | 95 | 1018.7 |
| 20260509053504 | 55 | 54 | 1.0 | 2.0 | 0.00 | 0.00 | 0.00 | 94 | 1018.6 |
| 20260509053004 | 55 | 54 | 0.0 | 0.0 | 0.00 | 0.00 | 0.00 | 94 | 1018.7 |
| 20260509052504 | 55 | 54 | 0.0 | 0.0 | 0.00 | 0.00 | 0.00 | 94 | 1018.7 |
| 20260509052004 | 55 | 54 | 0.0 | 0.0 | 0.00 | 0.00 | 0.00 | 94 | 1019.1 |
| 20260509051004 | 55 | 54 | 1.0 | 2.0 | 0.00 | 0.00 | 0.00 | 94 | 1019.3 |
| 20260509050503 | 55 | 53 | 1.0 | 2.0 | 0.00 | 0.00 | 0.00 | 94 | 1019.5 |
| 20260509050004 | 55 | 54 | 1.0 | 2.0 | 0.00 | 0.00 | 0.00 | 94 | 1019.4 |
| 20260509045503 | 55 | 30 | 0.0 | 5.0 | 0.00 | 0.00 | 0.00 | 94 | 1019.4 |
| 20260509045004 | 55 | 49 | 0.0 | 2.0 | 0.00 | 0.00 | 0.00 | 94 | 1019.2 |
| 20260509044003 | 55 | 49 | 1.0 | 1.0 | 0.00 | 0.00 | 0.00 | 94 | 1019.3 |
| 20260509043004 | 54 | 53 | 0.0 | 0.0 | 0.00 | 0.00 | 0.00 | 95 | 1019.1 |
| 20260509042503 | 54 | 53 | 0.0 | 0.0 | 0.00 | 0.00 | 0.00 | 95 | 1019.1 |
| 20260509042004 | 54 | 53 | 0.0 | 0.0 | 0.00 | 0.00 | 0.00 | 95 | 1019.1 |
| 20260509041504 | 54 | 52 | 0.0 | 0.0 | 0.00 | 0.00 | 0.00 | 95 | 1018.9 |
| 20260509041004 | 54 | 53 | 0.0 | 2.0 | 0.00 | 0.00 | 0.00 | 95 | 1019.0 |
| 20260509040503 | 54 | 53 | 1.0 | 2.0 | 0.00 | 0.00 | 0.00 | 94 | 1019.1 |
| 20260509040004 | 54 | 51 | 1.0 | 2.0 | 0.00 | 0.00 | 0.00 | 94 | 1019.1 |
| 20260509035504 | 54 | 40 | 1.0 | 2.0 | 0.00 | 0.00 | 0.00 | 94 | 1019.5 |
| 20260509035004 | 54 | 39 | 1.0 | 2.0 | 0.00 | 0.00 | 0.00 | 94 | 1019.2 |
| 20260509034504 | 54 | 38 | 0.0 | 2.0 | 0.00 | 0.00 | 0.00 | 94 | 1019.4 |
| 20260509034004 | 54 | 46 | 1.0 | 3.0 | 0.00 | 0.00 | 0.00 | 94 | 1019.1 |
| 20260509033504 | 54 | 60 | 1.0 | 2.0 | 0.00 | 0.00 | 0.00 | 94 | 1019.1 |
| 20260509032503 | 54 | 60 | 0.0 | 1.0 | 0.00 | 0.00 | 0.00 | 95 | 1019.7 |
| 20260509031503 | 54 | 60 | 1.0 | 1.0 | 0.00 | 0.00 | 0.00 | 95 | 1019.5 |
| 20260509031004 | 54 | 60 | 1.0 | 1.0 | 0.00 | 0.00 | 0.00 | 95 | 1019.6 |
| 20260509030504 | 54 | 60 | 1.0 | 1.0 | 0.00 | 0.00 | 0.00 | 95 | 1019.6 |
| 20260509030004 | 54 | 60 | 0.0 | 1.0 | 0.00 | 0.00 | 0.00 | 95 | 1019.8 |
| 20260509025504 | 54 | 60 | 1.0 | 2.0 | 0.00 | 0.00 | 0.00 | 95 | 1019.7 |
| 20260509025004 | 54 | 60 | 0.0 | 2.0 | 0.00 | 0.00 | 0.00 | 95 | 1020.0 |
| 20260509024504 | 54 | 60 | 1.0 | 2.0 | 0.00 | 0.00 | 0.00 | 95 | 1019.8 |
| 20260509024004 | 54 | 60 | 1.0 | 2.0 | 0.00 | 0.00 | 0.00 | 95 | 1019.6 |
| 20260509023504 | 54 | 61 | 1.0 | 2.0 | 0.00 | 0.00 | 0.00 | 95 | 1019.8 |
| 20260509023004 | 54 | 61 | 0.0 | 1.0 | 0.00 | 0.00 | 0.00 | 95 | 1019.8 |
| 20260509022504 | 54 | 61 | 0.0 | 1.0 | 0.00 | 0.00 | 0.00 | 95 | 1019.9 |
| 20260509021504 | 54 | 61 | 1.0 | 2.0 | 0.00 | 0.00 | 0.00 | 95 | 1020.0 |
| 20260509021004 | 54 | 61 | 0.0 | 1.0 | 0.00 | 0.00 | 0.00 | 95 | 1020.1 |
| 20260509020504 | 54 | 61 | 1.0 | 1.0 | 0.00 | 0.00 | 0.00 | 95 | 1020.1 |
| 20260509020004 | 54 | 61 | 1.0 | 2.0 | 0.00 | 0.00 | 0.00 | 95 | 1020.3 |
| 20260509015504 | 54 | 61 | 1.0 | 2.0 | 0.00 | 0.00 | 0.00 | 95 | 1020.0 |
| 20260509015004 | 54 | 62 | 0.0 | 2.0 | 0.00 | 0.00 | 0.00 | 95 | 1020.4 |
| 20260509014503 | 54 | 58 | 1.0 | 2.0 | 0.00 | 0.00 | 0.00 | 95 | 1020.4 |
| 20260509014004 | 54 | 58 | 0.0 | 0.0 | 0.00 | 0.00 | 0.00 | 95 | 1020.5 |
| 20260509013504 | 54 | 58 | 0.0 | 1.0 | 0.00 | 0.00 | 0.00 | 95 | 1020.4 |
| 20260509012504 | 54 | 58 | 1.0 | 2.0 | 0.00 | 0.00 | 0.00 | 95 | 1020.8 |
| 20260509012004 | 54 | 58 | 1.0 | 2.0 | 0.00 | 0.00 | 0.00 | 95 | 1020.8 |
| 20260509011004 | 54 | 58 | 1.0 | 2.0 | 0.00 | 0.00 | 0.00 | 95 | 1021.2 |
| 20260509010504 | 54 | 58 | 1.0 | 2.0 | 0.00 | 0.00 | 0.00 | 95 | 1021.2 |
| 20260509010004 | 54 | 58 | 1.0 | 1.0 | 0.00 | 0.00 | 0.00 | 95 | 1021.1 |
| 20260509005503 | 54 | 58 | 1.0 | 2.0 | 0.00 | 0.00 | 0.00 | 95 | 1021.2 |
| 20260509005004 | 54 | 58 | 1.0 | 2.0 | 0.00 | 0.00 | 0.00 | 95 | 1021.2 |
| 20260509004504 | 54 | 58 | 0.0 | 2.0 | 0.00 | 0.00 | 0.00 | 95 | 1021.2 |
| 20260509004004 | 54 | 53 | 1.0 | 2.0 | 0.00 | 0.00 | 0.00 | 94 | 1021.4 |
| 20260509003504 | 54 | 53 | 1.0 | 2.0 | 0.00 | 0.00 | 0.00 | 94 | 1021.2 |
| 20260509003004 | 54 | 74 | 1.0 | 3.0 | 0.00 | 0.00 | 0.00 | 94 | 1021.5 |
| 20260509002504 | 54 | 55 | 1.0 | 3.0 | 0.00 | 0.00 | 0.00 | 94 | 1021.2 |
| 20260509002004 | 55 | 55 | 2.0 | 3.0 | 0.00 | 0.00 | 0.00 | 94 | 1021.2 |
| 20260509001504 | 55 | 62 | 1.0 | 3.0 | 0.00 | 0.00 | 0.00 | 94 | 1021.3 |
| 20260509001004 | 55 | 40 | 1.0 | 5.0 | 0.00 | 0.00 | 0.00 | 94 | 1021.3 |
| 20260509000504 | 55 | 64 | 1.0 | 5.0 | 0.00 | 0.00 | 0.00 | 94 | 1021.2 |
| 20260509000004 | 55 | 72 | 1.0 | 3.0 | 0.00 | 0.00 | 0.00 | 94 | 1021.4 |
| 20260508235503 | 55 | 65 | 1.0 | 2.0 | 0.00 | 0.00 | 0.00 | 94 | 1021.3 |
| 20260508235003 | 55 | 65 | 1.0 | 2.0 | 0.00 | 0.00 | 0.00 | 94 | 1021.1 |
| 20260508234504 | 55 | 65 | 1.0 | 2.0 | 0.00 | 0.00 | 0.00 | 94 | 1021.3 |
| 20260508234004 | 55 | 65 | 1.0 | 2.0 | 0.00 | 0.00 | 0.00 | 94 | 1021.3 |
| 20260508233504 | 55 | 65 | 1.0 | 2.0 | 0.00 | 0.00 | 0.00 | 94 | 1021.4 |
| 20260508233004 | 55 | 65 | 0.0 | 1.0 | 0.00 | 0.00 | 0.00 | 93 | 1021.5 |
| 20260508232504 | 55 | 65 | 1.0 | 2.0 | 0.00 | 0.00 | 0.00 | 93 | 1021.4 |
| 20260508232004 | 55 | 65 | 1.0 | 2.0 | 0.00 | 0.00 | 0.00 | 93 | 1021.5 |
| 20260508231504 | 56 | 65 | 1.0 | 2.0 | 0.00 | 0.00 | 0.00 | 93 | 1021.5 |
| 20260508231004 | 56 | 65 | 1.0 | 2.0 | 0.00 | 0.00 | 0.00 | 93 | 1021.5 |
| 20260508230504 | 56 | 65 | 1.0 | 2.0 | 0.00 | 0.00 | 0.00 | 93 | 1021.4 |
| 20260508230003 | 56 | 64 | 1.0 | 2.0 | 0.00 | 0.00 | 0.00 | 93 | 1021.5 |
| 20260508224503 | 56 | 66 | 1.0 | 2.0 | 0.00 | 0.00 | 0.00 | 92 | 1021.5 |
| 20260508223504 | 56 | 66 | 1.0 | 1.0 | 0.00 | 0.00 | 0.00 | 92 | 1021.6 |
| 20260508223003 | 56 | 66 | 0.0 | 1.0 | 0.00 | 0.00 | 0.00 | 92 | 1021.7 |
| 20260508222504 | 56 | 66 | 1.0 | 2.0 | 0.00 | 0.00 | 0.00 | 91 | 1021.9 |
| 20260508222004 | 56 | 66 | 1.0 | 2.0 | 0.00 | 0.00 | 0.00 | 91 | 1021.7 |
| 20260508221504 | 56 | 66 | 0.0 | 1.0 | 0.00 | 0.00 | 0.00 | 91 | 1021.8 |
| 20260508221004 | 56 | 66 | 0.0 | 1.0 | 0.00 | 0.00 | 0.00 | 91 | 1021.6 |
| 20260508220004 | 55 | 66 | 0.0 | 1.0 | 0.00 | 0.00 | 0.00 | 91 | 1021.8 |
| 20260508215504 | 55 | 66 | 0.0 | 1.0 | 0.00 | 0.00 | 0.00 | 91 | 1021.7 |
| 20260508214504 | 55 | 66 | 0.0 | 1.0 | 0.00 | 0.00 | 0.00 | 92 | 1022.0 |
| 20260508214004 | 55 | 66 | 0.0 | 1.0 | 0.00 | 0.00 | 0.00 | 92 | 1021.7 |
| 20260508213003 | 56 | 66 | 0.0 | 2.0 | 0.00 | 0.00 | 0.00 | 93 | 1021.8 |
| 20260508212504 | 56 | 66 | 1.0 | 2.0 | 0.00 | 0.00 | 0.00 | 92 | 1021.8 |
| 20260508211504 | 56 | 68 | 1.0 | 2.0 | 0.00 | 0.00 | 0.00 | 92 | 1021.8 |
| 20260508211003 | 56 | 68 | 1.0 | 2.0 | 0.00 | 0.00 | 0.00 | 92 | 1021.8 |
| 20260508210004 | 56 | 66 | 1.0 | 2.0 | 0.00 | 0.00 | 0.00 | 92 | 1021.6 |
| 20260508205503 | 56 | 62 | 1.0 | 1.0 | 0.00 | 0.00 | 0.00 | 92 | 1021.5 |
| 20260508205004 | 56 | 62 | 1.0 | 3.0 | 0.00 | 0.00 | 0.00 | 91 | 1021.7 |
| 20260508204504 | 56 | 71 | 1.0 | 3.0 | 0.00 | 0.00 | 0.00 | 91 | 1021.6 |
| 20260508204004 | 57 | 61 | 1.0 | 2.0 | 0.00 | 0.00 | 0.00 | 91 | 1021.6 |
| 20260508203504 | 57 | 74 | 1.0 | 2.0 | 0.00 | 0.00 | 0.00 | 91 | 1021.5 |
| 20260508203004 | 57 | 43 | 1.0 | 2.0 | 0.00 | 0.00 | 0.00 | 91 | 1021.5 |
| 20260508202004 | 57 | 57 | 1.0 | 3.0 | 0.00 | 0.00 | 0.00 | 90 | 1021.4 |
| 20260508201003 | 57 | 63 | 1.0 | 2.0 | 0.00 | 0.00 | 0.00 | 90 | 1021.2 |
| 20260508200004 | 57 | 48 | 1.0 | 2.0 | 0.00 | 0.00 | 0.00 | 90 | 1021.1 |
| 20260508195004 | 57 | 73 | 1.0 | 2.0 | 0.00 | 0.00 | 0.00 | 89 | 1020.9 |
| 20260508194004 | 58 | 49 | 1.0 | 2.0 | 0.00 | 0.00 | 0.00 | 89 | 1020.6 |
| 20260508193504 | 58 | 37 | 0.0 | 3.0 | 0.00 | 0.00 | 0.00 | 88 | 1020.6 |
| 20260508193004 | 58 | 59 | 2.0 | 3.0 | 0.00 | 0.00 | 0.00 | 88 | 1020.7 |
| 20260508192003 | 58 | 50 | 1.0 | 2.0 | 0.00 | 0.00 | 0.00 | 87 | 1020.4 |
| 20260508191504 | 58 | 45 | 1.0 | 2.0 | 0.00 | 0.00 | 0.00 | 86 | 1020.4 |
| 20260508191004 | 59 | 48 | 1.0 | 3.0 | 0.00 | 0.00 | 0.00 | 86 | 1020.5 |
| 20260508190504 | 59 | 41 | 1.0 | 5.0 | 0.00 | 0.00 | 0.00 | 85 | 1020.5 |
| 20260508190004 | 59 | 46 | 2.0 | 3.0 | 0.00 | 0.00 | 0.00 | 84 | 1020.3 |
| 20260508185503 | 59 | 61 | 1.0 | 3.0 | 0.00 | 0.00 | 0.00 | 83 | 1020.4 |
| 20260508185004 | 59 | 47 | 1.0 | 3.0 | 0.00 | 0.00 | 0.00 | 84 | 1020.2 |
| 20260508184504 | 60 | 38 | 2.0 | 5.0 | 0.00 | 0.00 | 0.00 | 84 | 1019.9 |
| 20260508184004 | 60 | 40 | 2.0 | 5.0 | 0.00 | 0.00 | 0.00 | 83 | 1020.0 |
| 20260508183504 | 60 | 50 | 2.0 | 5.0 | 0.00 | 0.00 | 0.00 | 83 | 1020.0 |
| 20260508183004 | 60 | 31 | 2.0 | 3.0 | 0.00 | 0.00 | 0.00 | 83 | 1019.6 |
| 20260508182504 | 60 | 48 | 2.0 | 5.0 | 0.00 | 0.00 | 0.00 | 82 | 1019.7 |
| 20260508182004 | 60 | 67 | 2.0 | 5.0 | 0.00 | 0.00 | 0.00 | 81 | 1019.6 |
| 20260508181504 | 61 | 56 | 2.0 | 5.0 | 0.00 | 0.00 | 0.00 | 81 | 1019.6 |
| 20260508181004 | 61 | 50 | 1.0 | 3.0 | 0.00 | 0.00 | 0.00 | 81 | 1019.4 |
| 20260508180504 | 61 | 50 | 2.0 | 5.0 | 0.00 | 0.00 | 0.00 | 81 | 1019.6 |
| 20260508180004 | 61 | 59 | 0.0 | 2.0 | 0.00 | 0.00 | 0.00 | 80 | 1019.3 |
| 20260508175503 | 61 | 78 | 1.0 | 2.0 | 0.00 | 0.00 | 0.00 | 80 | 1019.4 |
| 20260508175004 | 61 | 74 | 1.0 | 5.0 | 0.00 | 0.00 | 0.00 | 80 | 1019.4 |
| 20260508174504 | 62 | 29 | 2.0 | 5.0 | 0.00 | 0.00 | 0.00 | 80 | 1019.3 |
| 20260508174005 | 61 | 65 | 1.0 | 3.0 | 0.00 | 0.00 | 0.00 | 79 | 1019.2 |
| 20260508173504 | 62 | 74 | 2.0 | 5.0 | 0.00 | 0.00 | 0.00 | 78 | 1019.3 |
| 20260508173004 | 62 | 45 | 2.0 | 6.0 | 0.00 | 0.00 | 0.00 | 78 | 1018.9 |
| 20260508172004 | 63 | 95 | 2.0 | 6.0 | 0.00 | 0.00 | 0.00 | 74 | 1018.9 |
| 20260508171504 | 63 | 67 | 1.0 | 6.0 | 0.00 | 0.01 | 0.00 | 69 | 1018.9 |
| 20260508171003 | 63 | 55 | 1.0 | 6.0 | 0.00 | 0.01 | 0.00 | 69 | 1018.9 |
| 20260508170504 | 63 | 48 | 3.0 | 7.0 | 0.00 | 0.02 | 0.00 | 68 | 1018.7 |
| 20260508170004 | 64 | 37 | 4.0 | 6.0 | 0.00 | 0.02 | 0.00 | 68 | 1018.7 |
| 20260508165004 | 64 | 48 | 4.0 | 7.0 | 0.00 | 0.04 | 0.00 | 68 | 1018.6 |
| 20260508164504 | 64 | 32 | 2.0 | 6.0 | 0.00 | 0.04 | 0.00 | 68 | 1018.5 |
| 20260508164004 | 64 | 48 | 3.0 | 8.0 | 0.00 | 0.05 | 0.00 | 69 | 1018.4 |
| 20260508163503 | 65 | 37 | 5.0 | 9.0 | 0.00 | 0.05 | 0.00 | 68 | 1018.6 |
| 20260508163004 | 65 | 53 | 4.0 | 7.0 | 0.00 | 0.06 | 0.00 | 68 | 1018.4 |
| 20260508161504 | 65 | 39 | 2.0 | 6.0 | 0.00 | 0.10 | 0.00 | 66 | 1018.5 |
| 20260508161004 | 67 | 59 | 2.0 | 5.0 | 0.00 | 0.12 | 0.00 | 65 | 1018.3 |
| 20260508160504 | 66 | 42 | 1.0 | 3.0 | 0.00 | 0.15 | 0.00 | 64 | 1018.3 |
| 20260508160004 | 65 | 24 | 1.0 | 6.0 | 0.00 | 0.19 | 0.00 | 65 | 1018.6 |
| 20260508155505 | 65 | 327 | 1.0 | 5.0 | 0.00 | 0.21 | 0.00 | 65 | 1018.5 |
| 20260508155004 | 64 | 11 | 1.0 | 3.0 | 0.00 | 0.24 | 0.00 | 65 | 1018.4 |
| 20260508154504 | 65 | 32 | 2.0 | 6.0 | 0.00 | 0.27 | 0.00 | 64 | 1018.2 |
| 20260508154004 | 65 | 43 | 5.0 | 7.0 | 0.00 | 0.28 | 0.00 | 64 | 1018.1 |
| 20260508153504 | 65 | 33 | 3.0 | 9.0 | 0.00 | 0.29 | 0.00 | 64 | 1018.0 |
| 20260508153004 | 66 | 26 | 3.0 | 9.0 | 0.00 | 0.30 | 0.00 | 63 | 1017.9 |
| 20260508152504 | 64 | 34 | 2.0 | 7.0 | 0.00 | 0.32 | 0.00 | 64 | 1018.3 |
| 20260508152004 | 65 | 14 | 2.0 | 6.0 | 0.00 | 0.33 | 0.00 | 64 | 1018.1 |
| 20260508151504 | 64 | 34 | 2.0 | 9.0 | 0.00 | 0.35 | 0.00 | 65 | 1018.3 |
| 20260508150504 | 65 | 34 | 5.0 | 8.0 | 0.00 | 0.35 | 0.00 | 62 | 1018.1 |
| 20260508145504 | 64 | 59 | 4.0 | 7.0 | 0.00 | 0.36 | 0.00 | 64 | 1018.5 |
| 20260508145004 | 64 | 45 | 5.0 | 7.0 | 0.00 | 0.37 | 0.00 | 64 | 1018.3 |
| 20260508144504 | 64 | 43 | 5.0 | 12.0 | 0.00 | 0.37 | 0.00 | 66 | 1018.5 |
| 20260508144004 | 65 | 56 | 5.0 | 8.0 | 0.00 | 0.38 | 0.00 | 64 | 1018.3 |
| 20260508143504 | 66 | 47 | 7.0 | 12.0 | 0.00 | 0.41 | 0.00 | 65 | 1018.4 |
| 20260508143003 | 68 | 38 | 3.0 | 8.0 | 0.00 | 0.42 | 0.00 | 58 | 1018.0 |
| 20260508142503 | 68 | 50 | 2.0 | 6.0 | 0.00 | 0.43 | 0.00 | 56 | 1018.0 |
| 20260508141504 | 66 | 282 | 1.0 | 8.0 | 0.00 | 0.43 | 0.00 | 57 | 1018.5 |
| 20260508141004 | 66 | 50 | 5.0 | 9.0 | 0.00 | 0.43 | 0.00 | 58 | 1018.6 |
| 20260508140504 | 67 | 38 | 3.0 | 7.0 | 0.00 | 0.43 | 0.00 | 58 | 1018.6 |
| 20260508140004 | 67 | 40 | 2.0 | 6.0 | 0.00 | 0.44 | 0.00 | 56 | 1018.7 |
| 20260508135504 | 67 | 48 | 2.0 | 5.0 | 0.00 | 0.44 | 0.00 | 56 | 1018.9 |
| 20260508134504 | 65 | 75 | 2.0 | 7.0 | 0.00 | 0.44 | 0.00 | 61 | 1019.0 |
| 20260508134003 | 64 | 46 | 2.0 | 7.0 | 0.00 | 0.44 | 0.00 | 63 | 1019.4 |
| 20260508133504 | 64 | 37 | 3.0 | 7.0 | 0.00 | 0.44 | 0.00 | 64 | 1019.4 |
| 20260508133004 | 65 | 44 | 2.0 | 6.0 | 0.00 | 0.44 | 0.00 | 61 | 1019.3 |
| 20260508132504 | 66 | 32 | 2.0 | 5.0 | 0.00 | 0.44 | 0.00 | 55 | 1019.4 |
| 20260508132003 | 66 | 80 | 2.0 | 5.0 | 0.00 | 0.44 | 0.00 | 55 | 1019.3 |
| 20260508131503 | 66 | 44 | 2.0 | 3.0 | 0.00 | 0.44 | 0.00 | 57 | 1019.2 |
| 20260508131004 | 65 | 44 | 2.0 | 7.0 | 0.00 | 0.44 | 0.00 | 58 | 1019.5 |
| 20260508130504 | 65 | 26 | 3.0 | 5.0 | 0.00 | 0.44 | 0.00 | 58 | 1019.5 |
| 20260508125004 | 64 | 265 | 1.0 | 2.0 | 0.00 | 0.44 | 0.00 | 60 | 1020.0 |
| 20260508124504 | 64 | 40 | 2.0 | 8.0 | 0.00 | 0.44 | 0.00 | 61 | 1020.0 |
| 20260508124004 | 65 | 21 | 3.0 | 7.0 | 0.00 | 0.44 | 0.00 | 60 | 1019.8 |
| 20260508123503 | 64 | 308 | 1.0 | 5.0 | 0.00 | 0.44 | 0.00 | 61 | 1020.0 |
| 20260508123004 | 64 | 40 | 1.0 | 5.0 | 0.00 | 0.44 | 0.00 | 61 | 1019.7 |
| 20260508122504 | 63 | 49 | 1.0 | 6.0 | 0.00 | 0.44 | 0.00 | 63 | 1020.0 |
| 20260508122004 | 64 | 30 | 2.0 | 5.0 | 0.00 | 0.44 | 0.00 | 61 | 1020.1 |
| 20260508121503 | 63 | 356 | 1.0 | 3.0 | 0.00 | 0.44 | 0.00 | 62 | 1020.2 |
| 20260508121004 | 62 | 83 | 1.0 | 5.0 | 0.00 | 0.44 | 0.00 | 61 | 1020.2 |
| 20260508120504 | 63 | 224 | 3.0 | 7.0 | 0.00 | 0.44 | 0.00 | 60 | 1020.3 |
| 20260508120004 | 63 | 131 | 1.0 | 5.0 | 0.00 | 0.44 | 0.00 | 64 | 1020.4 |
| 20260508115503 | 62 | 248 | 3.0 | 5.0 | 0.00 | 0.44 | 0.00 | 64 | 1020.3 |
| 20260508115004 | 62 | 241 | 2.0 | 6.0 | 0.00 | 0.44 | 0.00 | 64 | 1020.5 |
| 20260508114504 | 63 | 226 | 2.0 | 5.0 | 0.00 | 0.44 | 0.00 | 66 | 1020.3 |
| 20260508114004 | 62 | 121 | 1.0 | 3.0 | 0.00 | 0.44 | 0.00 | 67 | 1020.6 |
| 20260508113504 | 63 | 209 | 3.0 | 7.0 | 0.00 | 0.44 | 0.00 | 68 | 1020.6 |
| 20260508113004 | 62 | 38 | 3.0 | 7.0 | 0.00 | 0.44 | 0.00 | 68 | 1020.7 |
| 20260508112504 | 62 | 43 | 1.0 | 5.0 | 0.00 | 0.44 | 0.00 | 68 | 1020.6 |
| 20260508111504 | 61 | 47 | 2.0 | 5.0 | 0.00 | 0.44 | 0.00 | 70 | 1020.8 |
| 20260508111004 | 61 | 28 | 1.0 | 2.0 | 0.00 | 0.44 | 0.00 | 70 | 1021.0 |
| 20260508110504 | 60 | 225 | 1.0 | 2.0 | 0.00 | 0.44 | 0.00 | 72 | 1021.4 |
| 20260508110004 | 59 | 53 | 2.0 | 3.0 | 0.00 | 0.44 | 0.00 | 72 | 1021.4 |
| 20260508105504 | 60 | 104 | 1.0 | 2.0 | 0.00 | 0.44 | 0.00 | 74 | 1021.5 |